Rechercher aéroport 
image banner adimage banner adimage banner ad
image banner ad

D86 - Sequoia Field

Situé à Visalia, United States

ICAO - D86, IATA -

Données fournies par Airmate  

Information générale

Coordonnées: N36°26'53" W119°19'7"
Élévation : 313 feet MSL.
Variation magnétique : 15° East
Voir autres Aéroports à California

Données opérationnelles

Special qualification required
Heure actuelle UTC:
Heure actuelle locale:
Météo à : KVIS - Visalia Muni ( 16 km )
METAR: KVIS 251256Z AUTO 11003KT 10SM CLR 20/15 A2989 RMK AO2 SLP123 T02000150
TAF: KVIS 251120Z 2512/2612 VRB04KT P6SM FEW250 FM260500 32007KT P6SM SCT250 FM260800 VRB03KT P6SM FEW250
Voir NOTAMs / SUP AIP / TFR affectant cet aéroport [VIEW]
Fréquences de communication: [VIEW]

Pistes:

Identifiant RWYQFULongueur (ft)Largeur (ft)SurfaceLDA (ft)
13301260ASPH
31301260ASPH

Coordonnées de l'aéroport

Adresse: Visalia United States

Vue satellite de D86